createdAt,value
2017-09-22T00:00:44.893Z,76.80
2017-09-22T00:03:12.367Z,77.00
2017-09-22T00:05:39.887Z,76.70
2017-09-22T00:08:07.372Z,77.10
2017-09-22T00:10:34.847Z,77.20
2017-09-22T00:13:03.108Z,77.90
2017-09-22T00:15:30.583Z,77.20
2017-09-22T00:17:58.081Z,77.30
2017-09-22T00:20:25.560Z,77.40
2017-09-22T00:22:53.041Z,76.60
2017-09-22T00:25:20.629Z,77.10
2017-09-22T00:27:48.875Z,77.20
2017-09-22T00:30:16.379Z,77.20
2017-09-22T00:32:44.620Z,77.00
2017-09-22T00:35:12.095Z,77.00
2017-09-22T00:37:40.363Z,77.70
2017-09-22T00:40:07.832Z,77.60
2017-09-22T00:42:36.099Z,77.60
2017-09-22T00:45:03.581Z,77.60
2017-09-22T00:47:31.829Z,77.10
2017-09-22T00:49:59.320Z,77.10
2017-09-22T00:52:26.815Z,77.10
2017-09-22T00:54:54.316Z,77.30
2017-09-22T00:57:22.564Z,76.80
2017-09-22T00:59:50.044Z,76.70
2017-09-22T01:02:17.531Z,77.10
2017-09-22T01:04:45.036Z,76.90
2017-09-22T01:07:12.535Z,77.00
2017-09-22T01:09:40.780Z,77.40
2017-09-22T01:12:08.260Z,77.30
2017-09-22T01:14:36.511Z,78.10
2017-09-22T01:17:03.994Z,77.90
2017-09-22T01:19:32.269Z,78.30
2017-09-22T01:22:00.520Z,78.80
2017-09-22T01:24:27.999Z,78.20
2017-09-22T01:26:55.500Z,78.40
2017-09-22T01:29:22.988Z,79.30
2017-09-22T01:31:50.488Z,78.80
2017-09-22T01:34:18.728Z,79.20
2017-09-22T01:36:46.209Z,79.10
2017-09-22T01:39:13.705Z,79.30
2017-09-22T01:41:41.254Z,79.20
2017-09-22T01:44:08.769Z,79.50
2017-09-22T01:46:36.247Z,79.50
2017-09-22T01:49:03.721Z,79.50
2017-09-22T01:51:31.981Z,79.80
2017-09-22T01:54:00.227Z,80.20
2017-09-22T01:56:27.727Z,79.50
2017-09-22T01:58:55.976Z,79.50
2017-09-22T02:01:23.453Z,79.40
2017-09-22T02:03:51.716Z,79.40
2017-09-22T02:06:19.193Z,79.40
2017-09-22T02:08:47.459Z,79.40
2017-09-22T02:11:14.935Z,79.40
2017-09-22T02:13:43.204Z,79.60
2017-09-22T02:16:11.451Z,80.10
2017-09-22T02:18:38.933Z,80.70
2017-09-22T02:21:07.195Z,80.40
2017-09-22T02:23:34.672Z,80.40
2017-09-22T02:26:02.943Z,80.20
2017-09-22T02:28:31.192Z,80.70
2017-09-22T02:30:58.692Z,80.10
2017-09-22T02:33:26.932Z,80.20
2017-09-22T02:35:54.407Z,80.20
2017-09-22T02:38:21.902Z,80.20
2017-09-22T02:40:49.388Z,80.30
2017-09-22T02:43:16.893Z,80.40
2017-09-22T02:45:45.138Z,80.40
2017-09-22T02:48:12.743Z,80.40
2017-09-22T02:50:40.236Z,80.40
2017-09-22T02:53:07.714Z,80.30
2017-09-22T02:55:35.208Z,80.50
2017-09-22T02:58:03.455Z,80.50
2017-09-22T03:00:30.949Z,80.40
2017-09-22T03:02:59.192Z,80.60
2017-09-22T03:05:26.695Z,80.60
2017-09-22T03:07:54.175Z,80.60
2017-09-22T03:10:21.652Z,80.70
2017-09-22T03:12:49.141Z,80.90
2017-09-22T03:15:17.396Z,81.40
2017-09-22T03:17:44.986Z,81.20
2017-09-22T03:20:13.228Z,81.40
2017-09-22T03:22:40.736Z,81.40
2017-09-22T03:25:08.975Z,81.10
2017-09-22T03:27:36.459Z,81.10
2017-09-22T03:30:04.721Z,80.90
2017-09-22T03:32:32.201Z,80.80
2017-09-22T03:34:59.711Z,81.20
2017-09-22T03:37:27.196Z,81.10
2017-09-22T03:39:54.699Z,80.80
2017-09-22T03:42:22.177Z,80.90
2017-09-22T03:44:49.659Z,81.00
2017-09-22T03:47:17.155Z,80.80
2017-09-22T03:49:44.648Z,81.00
2017-09-22T03:52:12.144Z,81.10
2017-09-22T03:54:39.619Z,81.10
2017-09-22T03:57:07.999Z,81.20
2017-09-22T03:59:36.268Z,81.00
2017-09-22T04:02:04.515Z,81.80
2017-09-22T04:04:32.104Z,81.10
2017-09-22T04:06:59.580Z,81.10
2017-09-22T04:09:27.848Z,80.90
2017-09-22T04:11:56.087Z,81.20
2017-09-22T04:14:23.608Z,81.10
2017-09-22T04:16:51.131Z,81.00
2017-09-22T04:19:19.380Z,81.30
2017-09-22T04:21:46.875Z,81.30
2017-09-22T04:24:15.127Z,81.10
2017-09-22T04:26:43.396Z,81.20
2017-09-22T04:29:10.899Z,81.20
2017-09-22T04:31:38.395Z,81.00
2017-09-22T04:34:05.888Z,81.00
2017-09-22T04:36:33.363Z,81.00
2017-09-22T04:39:01.606Z,80.90
2017-09-22T04:41:29.095Z,80.90
2017-09-22T04:43:57.368Z,80.70
2017-09-22T04:46:25.779Z,80.50
2017-09-22T04:48:53.288Z,80.50
2017-09-22T04:51:20.767Z,80.30
2017-09-22T04:53:49.028Z,80.30
2017-09-22T04:56:16.525Z,80.20
2017-09-22T04:58:44.097Z,79.90
2017-09-22T05:01:11.579Z,79.90
2017-09-22T05:03:39.051Z,79.80
2017-09-22T05:06:06.540Z,79.70
2017-09-22T05:08:34.900Z,79.90
2017-09-22T05:11:02.392Z,79.90
2017-09-22T05:13:29.875Z,79.80
2017-09-22T05:15:57.385Z,79.90
2017-09-22T05:18:25.631Z,80.80
2017-09-22T05:20:53.104Z,80.20
2017-09-22T05:23:20.679Z,80.20
2017-09-22T05:25:48.955Z,80.40
2017-09-22T05:28:17.212Z,80.30
2017-09-22T05:30:44.688Z,80.30
2017-09-22T05:33:12.955Z,80.30
2017-09-22T05:35:40.437Z,80.20
2017-09-22T05:38:08.691Z,80.30
2017-09-22T05:40:37.060Z,80.20
2017-09-22T05:43:04.540Z,80.40
2017-09-22T05:45:39.604Z,80.30
2017-09-22T05:48:07.100Z,80.30
2017-09-22T05:50:34.591Z,80.10
2017-09-22T05:53:02.842Z,80.40
2017-09-22T05:55:30.323Z,80.30
2017-09-22T05:57:58.581Z,79.90
2017-09-22T06:00:26.063Z,79.90
2017-09-22T06:02:54.333Z,80.00
2017-09-22T06:05:22.595Z,80.20
2017-09-22T06:07:50.863Z,80.10
2017-09-22T06:10:18.341Z,80.10
2017-09-22T06:12:46.605Z,79.90
2017-09-22T06:15:14.091Z,79.80
2017-09-22T06:17:42.374Z,79.50
2017-09-22T06:20:10.631Z,79.50
2017-09-22T06:22:38.119Z,79.50
2017-09-22T06:25:05.622Z,79.70
2017-09-22T06:27:33.095Z,79.40
2017-09-22T06:30:02.084Z,79.30
2017-09-22T06:32:29.579Z,79.30
2017-09-22T06:34:57.824Z,79.30
2017-09-22T06:37:25.315Z,79.30
2017-09-22T06:39:52.791Z,79.30
2017-09-22T06:42:20.295Z,79.50
2017-09-22T06:44:47.779Z,79.50
2017-09-22T06:47:16.019Z,79.20
2017-09-22T06:49:43.515Z,79.20
2017-09-22T06:52:11.760Z,79.10
2017-09-22T06:54:39.267Z,79.10
2017-09-22T06:57:06.760Z,78.80
2017-09-22T06:59:34.256Z,78.50
2017-09-22T07:02:02.507Z,77.90
2017-09-22T12:53:27.280Z,51.50
2017-09-22T12:55:54.777Z,50.90
2017-09-22T12:58:22.283Z,51.60
2017-09-22T13:00:49.756Z,50.20
2017-09-22T13:03:17.227Z,50.10
2017-09-22T13:05:44.719Z,49.40
2017-09-22T13:08:12.964Z,52.00
2017-09-22T13:10:40.464Z,51.50
2017-09-22T13:13:08.704Z,52.20
2017-09-22T13:15:36.272Z,52.10
2017-09-22T13:18:03.746Z,52.40
2017-09-22T13:20:31.990Z,53.00
2017-09-22T13:22:59.476Z,52.70
2017-09-22T13:25:26.957Z,53.20
2017-09-22T13:27:55.212Z,53.30
2017-09-22T13:30:22.692Z,53.30
2017-09-22T13:32:50.947Z,54.40
2017-09-22T13:35:18.414Z,54.40
2017-09-22T13:37:46.659Z,54.50
2017-09-22T13:40:14.149Z,54.50
2017-09-22T13:42:42.391Z,55.70
2017-09-22T13:45:09.888Z,55.70
2017-09-22T13:47:38.123Z,56.20
2017-09-22T13:50:05.716Z,56.20
2017-09-22T13:52:33.951Z,55.60
2017-09-22T13:55:01.430Z,55.60
2017-09-22T13:57:29.704Z,55.00
2017-09-22T13:59:57.179Z,55.00
2017-09-22T14:02:24.663Z,55.60
2017-09-22T14:04:52.143Z,55.60
2017-09-22T14:07:19.712Z,55.60
2017-09-22T14:09:47.180Z,55.10
2017-09-22T14:12:14.659Z,54.50
2017-09-22T14:14:43.689Z,54.90
2017-09-22T14:17:11.923Z,54.90
2017-09-22T14:19:39.413Z,54.80
2017-09-22T14:22:07.651Z,54.50
2017-09-22T14:24:35.152Z,54.40
2017-09-22T14:27:03.405Z,54.30
2017-09-22T14:59:43.776Z,55.90
2017-09-22T15:02:11.252Z,56.30
2017-09-22T15:04:38.775Z,55.30
2017-09-22T15:07:06.264Z,55.60
2017-09-22T15:09:34.572Z,55.30
2017-09-22T15:12:02.065Z,55.30
2017-09-22T15:14:29.549Z,54.50
2017-09-22T15:16:57.835Z,55.50
2017-09-22T15:19:26.076Z,56.20
2017-09-22T15:21:53.575Z,56.20
2017-09-22T15:24:21.835Z,56.60
2017-09-22T15:26:49.308Z,56.60
2017-09-22T15:29:17.559Z,56.70
2017-09-22T15:31:45.055Z,56.60
2017-09-22T15:34:12.547Z,57.10
2017-09-22T15:36:40.068Z,57.40
2017-09-22T15:39:08.327Z,57.50
2017-09-22T15:41:36.568Z,57.90
2017-09-22T15:44:04.044Z,57.80
2017-09-22T15:46:31.531Z,58.50
2017-09-22T15:48:59.803Z,58.40
2017-09-22T15:51:28.064Z,58.90
2017-09-22T15:53:55.532Z,58.80
2017-09-22T15:56:23.808Z,59.00
2017-09-22T15:58:52.049Z,59.00
2017-09-22T16:01:19.532Z,58.90
2017-09-22T16:03:47.015Z,59.30
2017-09-22T16:06:15.258Z,59.00
2017-09-22T16:08:42.756Z,59.00
2017-09-22T16:11:10.240Z,60.20
2017-09-22T16:13:37.743Z,59.80
2017-09-22T16:16:05.271Z,60.10
2017-09-22T16:18:32.744Z,59.80
2017-09-22T16:21:00.240Z,59.60
2017-09-22T16:23:28.501Z,59.90
2017-09-22T16:25:56.771Z,60.10
2017-09-22T16:28:24.252Z,60.00
2017-09-22T16:30:52.524Z,60.20
2017-09-22T16:33:20.769Z,60.00
2017-09-22T16:35:48.236Z,60.00
2017-09-22T16:38:15.728Z,60.60
2017-09-22T16:40:43.214Z,60.90
2017-09-22T16:43:10.700Z,61.00
2017-09-22T16:45:38.176Z,60.70
2017-09-22T16:48:06.452Z,61.40
2017-09-22T16:50:34.692Z,63.80
2017-09-22T16:53:02.164Z,63.10
2017-09-22T16:55:29.686Z,64.40
2017-09-22T16:57:57.172Z,65.40
2017-09-22T17:00:24.682Z,66.00
2017-09-22T17:02:52.934Z,66.90
2017-09-22T17:05:20.444Z,66.90
2017-09-22T17:07:47.926Z,67.10
2017-09-22T17:10:15.411Z,67.90
2017-09-22T17:12:44.412Z,68.60
2017-09-22T17:15:12.694Z,69.00
2017-09-22T17:17:40.965Z,69.40
2017-09-22T17:20:09.249Z,69.60
2017-09-22T17:22:37.530Z,69.70
2017-09-22T17:25:05.777Z,69.90
2017-09-22T17:27:33.259Z,69.90
2017-09-22T17:30:01.569Z,69.90
2017-09-22T17:32:29.051Z,69.80
2017-09-22T17:34:56.548Z,69.90
2017-09-22T17:37:25.101Z,70.30
2017-09-22T17:39:53.651Z,70.30
2017-09-22T17:42:21.129Z,70.40
2017-09-22T17:44:48.604Z,70.50
2017-09-22T17:47:16.107Z,70.40
2017-09-22T17:49:43.587Z,70.60
2017-09-22T17:52:11.090Z,70.40
2017-09-22T17:54:38.571Z,71.00
2017-09-22T17:57:06.874Z,71.30
2017-09-22T17:59:34.388Z,71.30
2017-09-22T18:02:03.388Z,70.60
2017-09-22T18:04:31.689Z,70.50
2017-09-22T18:06:59.976Z,70.80
2017-09-22T18:09:27.493Z,70.70
2017-09-22T18:11:54.986Z,70.40
2017-09-22T18:14:22.492Z,70.70
2017-09-22T18:16:50.913Z,70.70
2017-09-22T18:19:19.177Z,71.00
2017-09-22T18:21:46.680Z,70.90
2017-09-22T18:24:14.174Z,70.70
2017-09-22T18:26:42.453Z,70.50
2017-09-22T18:29:09.944Z,70.50
2017-09-22T18:31:38.238Z,70.50
2017-09-22T18:34:05.753Z,70.40
2017-09-22T18:36:33.251Z,71.00
2017-09-22T18:39:00.764Z,70.50
2017-09-22T18:41:28.247Z,70.40
2017-09-22T18:43:56.520Z,70.60
2017-09-22T18:46:24.780Z,70.60
2017-09-22T18:48:52.295Z,70.50
2017-09-22T18:51:19.782Z,70.60
2017-09-22T18:53:47.258Z,71.40
2017-09-22T18:56:14.753Z,71.30
2017-09-22T18:58:42.236Z,71.40
2017-09-22T19:01:09.730Z,71.70
2017-09-22T19:03:37.214Z,72.00
2017-09-22T19:06:05.522Z,70.90
2017-09-22T19:08:32.999Z,70.80
2017-09-22T19:11:00.477Z,71.60
2017-09-22T19:13:27.968Z,71.50
2017-09-22T19:15:56.212Z,70.90
2017-09-22T19:18:23.715Z,70.90
2017-09-22T19:20:51.257Z,71.40
2017-09-22T19:23:19.646Z,71.10
2017-09-22T19:25:47.895Z,70.80
2017-09-22T19:28:15.391Z,70.90
2017-09-22T19:30:42.907Z,71.70
2017-09-22T19:33:10.388Z,71.30
2017-09-22T19:35:38.656Z,72.10
2017-09-22T19:38:06.906Z,71.50
2017-09-22T19:40:34.421Z,71.70
2017-09-22T19:43:01.912Z,71.80
2017-09-22T19:45:29.392Z,71.90
2017-09-22T19:47:56.892Z,72.00
2017-09-22T19:50:24.437Z,72.50
2017-09-22T19:52:51.952Z,72.40
2017-09-22T19:55:19.443Z,72.40
2017-09-22T19:57:46.948Z,72.60
2017-09-22T20:00:14.431Z,72.70
2017-09-22T20:02:41.919Z,73.00
2017-09-22T20:05:09.415Z,73.00
2017-09-22T20:07:36.891Z,73.70
2017-09-22T20:10:04.384Z,73.10
2017-09-22T20:12:31.879Z,73.30
2017-09-22T20:14:59.412Z,73.70
2017-09-22T20:17:26.895Z,74.10
2017-09-22T20:19:54.370Z,73.70
2017-09-22T20:22:21.867Z,74.20
2017-09-22T20:24:49.368Z,74.40
2017-09-22T20:27:17.635Z,75.00
2017-09-22T20:29:45.875Z,75.10
2017-09-22T20:32:13.355Z,75.00
2017-09-22T20:34:40.845Z,75.50
2017-09-22T20:37:08.325Z,75.90
2017-09-22T20:39:35.840Z,76.10
2017-09-22T20:42:04.150Z,76.30
2017-09-22T20:44:31.632Z,76.30
2017-09-22T20:46:59.146Z,76.70
2017-09-22T20:49:27.391Z,77.20
2017-09-22T20:51:55.676Z,77.50
2017-09-22T20:54:23.919Z,77.60
2017-09-22T20:56:51.405Z,77.60
2017-09-22T20:59:18.910Z,77.70
2017-09-22T21:01:46.400Z,77.80
2017-09-22T21:04:13.892Z,78.00
2017-09-22T21:06:42.175Z,78.30
2017-09-22T21:09:10.455Z,78.40
2017-09-22T21:11:38.739Z,78.60
2017-09-22T21:14:06.987Z,78.80
2017-09-22T21:16:34.478Z,78.80
2017-09-22T21:19:01.988Z,78.40
2017-09-22T21:21:29.492Z,77.90
2017-09-22T21:23:57.744Z,75.40
